createdAt,value
2017-07-24T00:01:07.426Z,940.1
2017-07-24T00:02:15.459Z,940.1
2017-07-24T00:03:23.740Z,940.1
2017-07-24T00:04:31.633Z,940.1
2017-07-24T00:05:39.720Z,940.1
2017-07-24T00:06:47.862Z,940.1
2017-07-24T00:07:55.895Z,940.1
2017-07-24T00:09:03.982Z,940.1
2017-07-24T00:10:12.168Z,940.0
2017-07-24T00:11:20.212Z,940.0
2017-07-24T00:12:28.363Z,940.0
2017-07-24T00:13:36.332Z,940.0
2017-07-24T00:14:44.419Z,939.9
2017-07-24T00:15:52.502Z,939.9
2017-07-24T00:17:00.588Z,939.9
2017-07-24T00:18:08.736Z,939.9
2017-07-24T00:19:16.764Z,939.8
2017-07-24T00:20:24.852Z,939.8
2017-07-24T00:21:32.938Z,939.8
2017-07-24T00:22:41.030Z,939.8
2017-07-24T00:23:49.179Z,939.7
2017-07-24T00:24:57.211Z,939.8
2017-07-24T00:26:05.298Z,939.7
2017-07-24T00:27:13.508Z,939.7
2017-07-24T00:28:21.472Z,939.7
2017-07-24T00:29:29.617Z,939.7
2017-07-24T00:30:37.648Z,939.7
2017-07-24T00:31:45.735Z,939.7
2017-07-24T00:32:53.821Z,939.7
2017-07-24T00:34:01.909Z,939.7
2017-07-24T00:35:10.054Z,939.7
2017-07-24T00:36:18.083Z,939.6
2017-07-24T00:37:26.322Z,939.6
2017-07-24T00:38:34.414Z,939.6
2017-07-24T00:39:42.346Z,939.6
2017-07-24T00:40:50.555Z,939.6
2017-07-24T00:41:58.519Z,939.5
2017-07-24T00:43:06.661Z,939.5
2017-07-24T00:44:14.796Z,939.5
2017-07-24T00:45:22.781Z,939.5
2017-07-24T00:46:30.936Z,939.5
2017-07-24T00:47:38.968Z,939.4
2017-07-24T00:48:47.054Z,939.4
2017-07-24T00:49:55.166Z,939.4
2017-07-24T00:51:03.271Z,939.4
2017-07-24T00:52:11.435Z,939.4
2017-07-24T00:53:19.402Z,939.3
2017-07-24T00:54:27.501Z,939.3
2017-07-24T00:55:35.589Z,939.3
2017-07-24T00:56:43.675Z,939.3
2017-07-24T00:57:51.814Z,939.2
2017-07-24T00:58:59.971Z,939.2
2017-07-24T01:00:07.941Z,939.2
2017-07-24T01:01:16.164Z,939.1
2017-07-24T01:02:24.120Z,939.2
2017-07-24T01:03:32.263Z,939.1
2017-07-24T01:04:40.298Z,939.1
2017-07-24T01:05:48.389Z,939.1
2017-07-24T01:06:56.476Z,939.0
2017-07-24T01:08:04.561Z,939.0
2017-07-24T01:09:12.704Z,939.0
2017-07-24T01:10:20.738Z,939.0
2017-07-24T01:11:28.822Z,939.0
2017-07-24T01:12:36.910Z,938.9
2017-07-24T01:13:44.996Z,938.9
2017-07-24T01:14:53.203Z,938.9
2017-07-24T01:16:01.170Z,938.8
2017-07-24T01:17:09.257Z,938.8
2017-07-24T01:18:17.480Z,938.8
2017-07-24T01:19:25.432Z,938.8
2017-07-24T01:20:33.577Z,938.8
2017-07-24T01:21:41.607Z,938.7
2017-07-24T01:22:49.699Z,938.7
2017-07-24T01:23:57.784Z,938.8
2017-07-24T01:25:05.970Z,938.7
2017-07-24T01:26:14.009Z,938.6
2017-07-24T01:27:22.047Z,938.7
2017-07-24T01:28:30.322Z,938.6
2017-07-24T01:29:38.405Z,938.6
2017-07-24T01:30:46.432Z,938.6
2017-07-24T01:31:54.450Z,938.5
2017-07-24T01:33:02.483Z,938.5
2017-07-24T01:34:10.570Z,938.5
2017-07-24T01:35:18.733Z,938.4
2017-07-24T01:36:26.743Z,938.4
2017-07-24T01:37:34.887Z,938.3
2017-07-24T01:38:42.921Z,938.3
2017-07-24T01:39:51.008Z,938.3
2017-07-24T01:40:59.091Z,938.3
2017-07-24T01:42:07.180Z,938.4
2017-07-24T01:43:15.323Z,938.3
2017-07-24T01:44:23.354Z,938.3
2017-07-24T01:45:31.498Z,938.3
2017-07-24T01:46:39.797Z,938.3
2017-07-24T01:47:47.619Z,938.3
2017-07-24T01:48:55.766Z,938.3
2017-07-24T01:50:03.797Z,938.3
2017-07-24T01:51:11.885Z,938.3
2017-07-24T01:52:20.000Z,938.3
2017-07-24T01:53:28.065Z,938.2
2017-07-24T01:54:36.208Z,938.2
2017-07-24T01:55:44.241Z,938.2
2017-07-24T01:56:52.326Z,938.2
2017-07-24T01:58:00.412Z,938.1
2017-07-24T01:59:08.504Z,938.1
2017-07-24T02:00:16.710Z,938.0
2017-07-24T02:01:24.674Z,938.0
2017-07-24T02:02:32.930Z,938.0
2017-07-24T02:03:40.993Z,938.0
2017-07-24T02:04:48.936Z,938.0
2017-07-24T02:05:57.078Z,938.0
2017-07-24T02:07:05.109Z,938.0
2017-07-24T02:08:13.196Z,937.9
2017-07-24T02:09:21.286Z,938.0
2017-07-24T02:10:29.368Z,937.9
2017-07-24T02:11:37.579Z,937.9
2017-07-24T02:12:45.548Z,937.9
2017-07-24T02:13:53.631Z,937.9
2017-07-24T02:15:01.720Z,938.0
2017-07-24T02:16:09.806Z,937.9
2017-07-24T02:17:17.953Z,937.9
2017-07-24T02:18:26.103Z,937.9
2017-07-24T02:19:34.188Z,937.9
2017-07-24T02:20:42.307Z,937.8
2017-07-24T02:21:50.247Z,937.8
2017-07-24T02:22:58.389Z,937.8
2017-07-24T02:24:06.420Z,937.7
2017-07-24T02:25:14.513Z,937.7
2017-07-24T02:26:22.593Z,937.7
2017-07-24T02:27:30.682Z,937.7
2017-07-24T02:28:38.891Z,937.7
2017-07-24T02:29:46.860Z,937.6
2017-07-24T02:30:55.142Z,937.6
2017-07-24T02:32:03.032Z,937.6
2017-07-24T02:33:11.126Z,937.5
2017-07-24T02:34:19.261Z,937.5
2017-07-24T02:35:27.291Z,937.5
2017-07-24T02:36:35.389Z,937.5
2017-07-24T02:37:43.481Z,937.5
2017-07-24T02:38:51.550Z,937.5
2017-07-24T02:39:59.699Z,937.5
2017-07-24T02:41:07.727Z,937.4
2017-07-24T02:42:15.816Z,937.4
2017-07-24T02:43:23.903Z,937.4
2017-07-24T02:44:31.987Z,937.4
2017-07-24T02:45:40.195Z,937.4
2017-07-24T02:46:48.162Z,937.4
2017-07-24T02:47:56.249Z,937.4
2017-07-24T02:49:04.336Z,937.3
2017-07-24T02:50:12.483Z,937.3
2017-07-24T02:51:20.570Z,937.3
2017-07-24T02:52:28.603Z,937.3
2017-07-24T02:53:36.789Z,937.3
2017-07-24T02:54:44.882Z,937.2
2017-07-24T02:55:52.861Z,937.2
2017-07-24T02:57:01.001Z,937.2
2017-07-24T02:58:09.035Z,937.2
2017-07-24T02:59:17.121Z,937.2
2017-07-24T03:00:25.211Z,937.1
2017-07-24T03:01:33.295Z,937.2
2017-07-24T03:02:41.506Z,937.1
2017-07-24T03:03:49.469Z,937.1
2017-07-24T03:04:57.559Z,937.1
2017-07-24T03:06:05.713Z,937.0
2017-07-24T03:07:13.749Z,937.1
2017-07-24T03:08:21.891Z,937.0
2017-07-24T03:09:29.923Z,937.0
2017-07-24T03:10:38.133Z,937.0
2017-07-24T03:11:46.252Z,937.0
2017-07-24T03:12:54.181Z,937.0
2017-07-24T03:14:02.388Z,936.9
2017-07-24T03:15:10.355Z,937.0
2017-07-24T03:16:18.444Z,937.0
2017-07-24T03:17:26.537Z,937.0
2017-07-24T03:18:34.623Z,937.0
2017-07-24T03:19:42.765Z,937.0
2017-07-24T03:20:50.797Z,936.9
2017-07-24T03:21:58.942Z,937.0
2017-07-24T03:23:06.977Z,936.9
2017-07-24T03:24:15.065Z,936.9
2017-07-24T03:25:23.274Z,936.9
2017-07-24T03:26:31.238Z,936.9
2017-07-24T03:27:39.494Z,936.8
2017-07-24T03:28:47.480Z,936.8
2017-07-24T03:29:55.501Z,936.8
2017-07-24T03:31:03.642Z,936.8
2017-07-24T03:32:11.674Z,936.8
2017-07-24T03:33:19.762Z,936.7
2017-07-24T03:34:27.900Z,936.7
2017-07-24T03:35:35.936Z,936.6
2017-07-24T03:36:44.141Z,936.7
2017-07-24T03:37:52.171Z,936.6
2017-07-24T03:39:00.202Z,936.6
2017-07-24T03:40:08.290Z,936.6
2017-07-24T03:41:16.378Z,936.6
2017-07-24T03:42:26.358Z,936.5
2017-07-24T03:43:32.550Z,936.6
2017-07-24T03:44:40.801Z,936.6
2017-07-24T03:45:48.902Z,936.6
2017-07-24T03:46:56.810Z,936.5
2017-07-24T03:48:05.225Z,936.5
2017-07-24T03:49:12.984Z,936.5
2017-07-24T03:50:21.073Z,936.5
2017-07-24T03:51:29.225Z,936.5
2017-07-24T03:52:37.250Z,936.5
2017-07-24T03:53:45.392Z,936.5
2017-07-24T03:54:53.418Z,936.5
2017-07-24T03:56:01.511Z,936.5
2017-07-24T03:57:09.734Z,936.5
2017-07-24T03:58:17.835Z,936.5
2017-07-24T03:59:25.976Z,936.5
2017-07-24T04:00:33.853Z,936.4
2017-07-24T04:01:41.941Z,936.5
2017-07-24T04:02:50.027Z,936.4
2017-07-24T04:03:58.126Z,936.4
2017-07-24T04:05:06.323Z,936.5
2017-07-24T04:06:14.289Z,936.5
2017-07-24T04:07:22.373Z,936.5
2017-07-24T04:08:30.460Z,936.5
2017-07-24T04:09:38.603Z,936.4
2017-07-24T04:10:46.760Z,936.4
2017-07-24T04:11:54.720Z,936.5
2017-07-24T04:13:02.808Z,936.5
2017-07-24T04:14:11.350Z,936.4
2017-07-24T04:15:19.622Z,936.4
2017-07-24T04:16:27.124Z,936.5
2017-07-24T04:17:35.529Z,936.5
2017-07-24T04:18:43.241Z,936.5
2017-07-24T04:19:51.328Z,936.5
2017-07-24T04:20:59.595Z,936.5
2017-07-24T04:22:08.444Z,936.5
2017-07-24T04:23:16.267Z,936.5
2017-07-24T04:24:23.676Z,936.5
2017-07-24T04:25:32.835Z,936.5
2017-07-24T04:26:39.848Z,936.4
2017-07-24T04:27:51.143Z,936.4
2017-07-24T04:28:56.118Z,936.5
2017-07-24T04:30:04.110Z,936.4
2017-07-24T04:31:12.350Z,936.4
2017-07-24T04:32:20.677Z,936.4
2017-07-24T04:33:28.519Z,936.3
2017-07-24T04:34:36.517Z,936.3
2017-07-24T04:35:45.141Z,936.4
2017-07-24T04:36:52.857Z,936.3
2017-07-24T04:38:00.758Z,936.4
2017-07-24T04:39:08.860Z,936.3
2017-07-24T04:40:17.260Z,936.3
2017-07-24T04:41:25.826Z,936.2
2017-07-24T04:42:33.320Z,936.3
2017-07-24T04:43:41.158Z,936.3
2017-07-24T04:44:49.303Z,936.3
2017-07-24T04:45:57.338Z,936.2
2017-07-24T04:47:05.427Z,936.3
2017-07-24T04:48:13.526Z,936.3
2017-07-24T04:49:21.710Z,936.2
2017-07-24T04:50:29.807Z,936.2
2017-07-24T04:51:37.773Z,936.2
2017-07-24T04:52:45.860Z,936.2
2017-07-24T04:53:53.948Z,936.2
2017-07-24T04:55:02.034Z,936.1
2017-07-24T04:56:10.175Z,936.1
2017-07-24T04:57:18.264Z,936.1
2017-07-24T04:58:26.293Z,936.1
2017-07-24T04:59:34.598Z,936.1
2017-07-24T05:00:42.485Z,936.1
2017-07-24T05:01:50.674Z,936.0
2017-07-24T05:02:58.641Z,936.1
2017-07-24T05:04:06.726Z,936.1
2017-07-24T05:05:14.905Z,936.1
2017-07-24T05:06:23.305Z,936.1
2017-07-24T05:07:31.049Z,936.1
2017-07-24T05:08:39.080Z,936.2
2017-07-24T05:09:47.166Z,936.1
2017-07-24T05:10:55.251Z,936.1
2017-07-24T05:12:03.474Z,936.1
2017-07-24T05:13:11.552Z,936.1
2017-07-24T05:14:19.513Z,936.0
2017-07-24T05:15:27.599Z,936.1
2017-07-24T05:16:35.866Z,936.1
2017-07-24T05:17:43.775Z,936.0
2017-07-24T05:18:51.978Z,936.0
2017-07-24T05:19:59.948Z,936.0
2017-07-24T05:21:08.030Z,936.1
2017-07-24T05:22:16.193Z,936.1
2017-07-24T05:23:24.283Z,936.0
2017-07-24T05:24:32.410Z,936.0
2017-07-24T05:25:40.378Z,936.0
2017-07-24T05:26:48.464Z,935.9
2017-07-24T05:27:56.550Z,936.0
2017-07-24T05:29:04.696Z,935.9
2017-07-24T05:30:12.780Z,936.0
2017-07-24T05:31:20.812Z,936.0
2017-07-24T05:32:28.904Z,936.0
2017-07-24T05:33:37.153Z,936.0
2017-07-24T05:34:45.080Z,936.0
2017-07-24T05:35:53.220Z,936.0
2017-07-24T05:37:01.250Z,936.0
2017-07-24T05:38:09.338Z,936.0
2017-07-24T05:39:17.437Z,936.0
2017-07-24T05:40:25.650Z,936.1
2017-07-24T05:41:33.653Z,936.1
2017-07-24T05:42:41.686Z,936.1
2017-07-24T05:43:49.771Z,936.0
2017-07-24T05:44:57.980Z,936.0
2017-07-24T05:46:06.023Z,936.0
2017-07-24T05:47:14.087Z,936.0
2017-07-24T05:48:22.121Z,936.0
2017-07-24T05:49:30.205Z,935.9
2017-07-24T05:50:38.290Z,935.9
2017-07-24T05:51:46.377Z,935.8
2017-07-24T05:52:54.588Z,935.8
2017-07-24T05:54:02.555Z,935.8
2017-07-24T05:55:10.640Z,935.7
2017-07-24T05:56:18.880Z,935.7
2017-07-24T05:57:26.972Z,935.7
2017-07-24T05:58:35.021Z,935.7
2017-07-24T05:59:42.987Z,935.8
2017-07-24T06:00:51.130Z,935.8
2017-07-24T06:01:59.161Z,935.8
2017-07-24T06:03:07.282Z,935.8
2017-07-24T06:04:15.454Z,935.8
2017-07-24T06:05:23.426Z,935.9
2017-07-24T06:06:31.515Z,935.9
2017-07-24T06:07:39.618Z,935.8
2017-07-24T06:08:47.700Z,935.8
2017-07-24T06:09:55.844Z,935.8
2017-07-24T06:11:03.876Z,935.8
2017-07-24T06:12:11.960Z,935.8
2017-07-24T06:13:20.214Z,935.8
2017-07-24T06:14:28.308Z,935.8
2017-07-24T06:15:36.341Z,935.8
2017-07-24T06:16:44.363Z,935.7
2017-07-24T06:17:52.395Z,935.7
2017-07-24T06:19:00.481Z,935.7
2017-07-24T06:20:08.659Z,935.7
2017-07-24T06:21:16.714Z,935.6
2017-07-24T06:22:24.743Z,935.6
2017-07-24T06:23:32.831Z,935.6
2017-07-24T06:24:40.916Z,935.6
2017-07-24T06:25:49.004Z,935.6
2017-07-24T06:26:57.209Z,935.6
2017-07-24T06:28:05.177Z,935.7
2017-07-24T06:29:13.264Z,935.8
2017-07-24T06:30:21.418Z,935.8
2017-07-24T06:31:29.521Z,935.8
2017-07-24T06:32:37.585Z,935.8
2017-07-24T06:33:45.610Z,935.8
2017-07-24T06:34:53.701Z,935.8
2017-07-24T06:36:01.783Z,935.8
2017-07-24T06:37:09.949Z,935.8
2017-07-24T06:38:18.079Z,935.8
2017-07-24T06:39:26.044Z,935.8
2017-07-24T06:40:34.132Z,935.7
2017-07-24T06:41:42.221Z,935.7
2017-07-24T06:42:50.307Z,935.7
2017-07-24T06:43:58.517Z,935.6
2017-07-24T06:45:06.506Z,935.6
2017-07-24T06:46:14.569Z,935.6
2017-07-24T06:47:22.850Z,935.6
2017-07-24T06:48:30.991Z,935.5
2017-07-24T06:49:38.947Z,935.5
2017-07-24T06:50:46.916Z,935.5
2017-07-24T06:51:55.001Z,935.5
2017-07-24T06:53:03.091Z,935.5
2017-07-24T06:54:11.341Z,935.5
2017-07-24T06:55:19.316Z,935.5
2017-07-24T06:56:27.347Z,935.5
2017-07-24T06:57:35.432Z,935.5
2017-07-24T06:58:43.518Z,935.5
2017-07-24T06:59:51.661Z,935.5
2017-07-24T07:00:59.870Z,935.4
2017-07-24T07:02:07.790Z,935.4
2017-07-24T07:03:15.875Z,935.4
2017-07-24T07:04:24.018Z,935.5
2017-07-24T07:05:32.047Z,935.4
2017-07-24T07:06:40.256Z,935.5
2017-07-24T07:07:48.221Z,935.4
2017-07-24T07:08:56.309Z,935.4
2017-07-24T07:10:04.399Z,935.4
2017-07-24T07:11:12.484Z,935.5
2017-07-24T07:12:20.627Z,935.5
2017-07-24T07:13:28.659Z,935.5
2017-07-24T07:14:36.744Z,935.5
2017-07-24T07:15:44.829Z,935.5
2017-07-24T07:16:53.106Z,935.5
2017-07-24T07:18:01.063Z,935.5
2017-07-24T07:19:09.090Z,935.5
2017-07-24T07:20:17.302Z,935.5
2017-07-24T07:21:25.265Z,935.5
2017-07-24T07:22:33.355Z,935.5
2017-07-24T07:23:41.514Z,935.5
2017-07-24T07:24:49.530Z,935.5
2017-07-24T07:25:57.619Z,935.4
2017-07-24T07:27:05.710Z,935.5
2017-07-24T07:28:13.795Z,935.4
2017-07-24T07:29:21.939Z,935.4
2017-07-24T07:30:29.967Z,935.4
2017-07-24T07:31:38.054Z,935.4
2017-07-24T07:32:46.141Z,935.5
2017-07-24T07:33:54.390Z,935.4
2017-07-24T07:35:02.537Z,935.4
2017-07-24T07:36:10.457Z,935.4
2017-07-24T07:37:18.489Z,935.4
2017-07-24T07:38:26.577Z,935.4
2017-07-24T07:39:34.665Z,935.4
2017-07-24T07:40:42.841Z,935.4
2017-07-24T07:41:50.839Z,935.4
2017-07-24T07:42:58.923Z,935.4
2017-07-24T07:44:07.009Z,935.4
2017-07-24T07:45:15.095Z,935.4
2017-07-24T07:46:23.243Z,935.4
2017-07-24T07:47:31.270Z,935.4
2017-07-24T07:48:39.358Z,935.4
2017-07-24T07:49:47.446Z,935.4
2017-07-24T07:50:55.691Z,935.4
2017-07-24T07:52:03.929Z,935.4
2017-07-24T07:53:11.703Z,935.3
2017-07-24T07:54:19.791Z,935.3
2017-07-24T07:55:27.878Z,935.4
2017-07-24T07:56:35.970Z,935.3
2017-07-24T07:57:44.267Z,935.3
2017-07-24T07:58:52.140Z,935.3
2017-07-24T08:00:00.226Z,935.3
2017-07-24T08:01:08.314Z,935.3
2017-07-24T08:02:16.401Z,935.3
2017-07-24T08:03:24.542Z,935.3
2017-07-24T08:04:32.574Z,935.3
2017-07-24T08:05:40.666Z,935.3
2017-07-24T08:06:48.753Z,935.3
2017-07-24T08:07:57.114Z,935.3
2017-07-24T08:09:05.159Z,935.2
2017-07-24T08:10:13.013Z,935.2
2017-07-24T08:11:21.098Z,935.2
2017-07-24T08:12:29.185Z,935.2
2017-07-24T08:13:37.283Z,935.2
2017-07-24T08:14:45.496Z,935.2
2017-07-24T08:15:53.454Z,935.2
2017-07-24T08:17:01.541Z,935.2
2017-07-24T08:18:09.629Z,935.2
2017-07-24T08:19:17.714Z,935.1
2017-07-24T08:20:25.857Z,935.2
2017-07-24T08:21:33.888Z,935.2
2017-07-24T08:22:41.980Z,935.2
2017-07-24T08:23:50.188Z,935.2
2017-07-24T08:24:58.332Z,935.2
2017-07-24T08:26:06.475Z,935.1
2017-07-24T08:27:14.328Z,935.1
2017-07-24T08:28:22.414Z,935.2
2017-07-24T08:29:30.502Z,935.2
2017-07-24T08:30:38.589Z,935.2
2017-07-24T08:31:46.887Z,935.2
2017-07-24T08:32:54.766Z,935.2
2017-07-24T08:34:02.852Z,935.2
2017-07-24T08:35:10.938Z,935.1
2017-07-24T08:36:19.026Z,935.2
2017-07-24T08:37:27.230Z,935.1
2017-07-24T08:38:35.200Z,935.2
2017-07-24T08:39:43.343Z,935.2
2017-07-24T08:40:51.373Z,935.2
2017-07-24T08:41:59.547Z,935.2
2017-07-24T08:43:07.857Z,935.2
2017-07-24T08:44:15.642Z,935.2
2017-07-24T08:45:23.726Z,935.2
2017-07-24T08:46:31.831Z,935.2
2017-07-24T08:47:39.900Z,935.2
2017-07-24T08:48:48.174Z,935.3
2017-07-24T08:49:56.078Z,935.2
2017-07-24T08:51:04.160Z,935.2
2017-07-24T08:52:12.246Z,935.2
2017-07-24T08:53:20.334Z,935.2
2017-07-24T08:54:28.541Z,935.2
2017-07-24T08:55:36.563Z,935.2
2017-07-24T08:56:44.596Z,935.3
2017-07-24T08:57:52.683Z,935.3
2017-07-24T08:59:00.767Z,935.3
2017-07-24T09:00:08.913Z,935.3
2017-07-24T09:01:17.004Z,935.3
2017-07-24T09:02:25.031Z,935.3
2017-07-24T09:03:33.118Z,935.4
2017-07-24T09:04:41.204Z,935.4
2017-07-24T09:05:49.409Z,935.4
2017-07-24T09:06:57.375Z,935.4
2017-07-24T09:08:05.462Z,935.5
2017-07-24T09:09:13.549Z,935.6
2017-07-24T09:10:21.636Z,935.6
2017-07-24T09:11:29.780Z,935.6
2017-07-24T09:12:37.859Z,935.6
2017-07-24T09:13:46.049Z,935.6
2017-07-24T09:14:53.986Z,935.6
2017-07-24T09:16:02.075Z,935.6
2017-07-24T09:17:10.277Z,935.5
2017-07-24T09:18:18.243Z,935.5
2017-07-24T09:19:26.366Z,935.6
2017-07-24T09:20:34.421Z,935.6
2017-07-24T09:21:42.507Z,935.6
2017-07-24T09:22:50.647Z,935.6
2017-07-24T09:23:58.686Z,935.6
2017-07-24T09:25:06.772Z,935.5
2017-07-24T09:26:14.856Z,935.5
2017-07-24T09:27:23.066Z,935.5
2017-07-24T09:28:31.088Z,935.5
2017-07-24T09:29:39.178Z,935.5
2017-07-24T09:30:47.381Z,935.5
2017-07-24T09:31:55.294Z,935.6
2017-07-24T09:33:03.383Z,935.6
2017-07-24T09:34:11.595Z,935.7
2017-07-24T09:35:19.562Z,935.7
2017-07-24T09:36:27.696Z,935.7
2017-07-24T09:37:35.736Z,935.7
2017-07-24T09:38:43.825Z,935.7
2017-07-24T09:39:51.969Z,935.7
2017-07-24T09:41:00.001Z,935.7
2017-07-24T09:42:08.088Z,935.8
2017-07-24T09:43:16.300Z,935.8
2017-07-24T09:44:24.260Z,935.8
2017-07-24T09:45:32.404Z,935.8
2017-07-24T09:46:40.441Z,935.8
2017-07-24T09:47:48.718Z,935.8
2017-07-24T09:48:56.608Z,935.8
2017-07-24T09:50:04.698Z,935.8
2017-07-24T09:51:12.903Z,935.7
2017-07-24T09:52:20.867Z,935.7
2017-07-24T09:53:29.045Z,935.7
2017-07-24T09:54:37.045Z,935.8
2017-07-24T09:55:45.129Z,935.8
2017-07-24T09:56:53.272Z,935.8
2017-07-24T09:58:01.304Z,935.7
2017-07-24T09:59:09.455Z,935.8
2017-07-24T10:00:17.498Z,935.8
2017-07-24T10:01:25.563Z,935.8
2017-07-24T10:02:33.706Z,935.7
2017-07-24T10:03:41.898Z,935.7
2017-07-24T10:04:49.824Z,935.7
2017-07-24T10:05:57.913Z,935.7
2017-07-24T10:07:06.011Z,935.8
2017-07-24T10:08:14.208Z,935.7
2017-07-24T10:09:22.173Z,935.8
2017-07-24T10:10:30.402Z,935.7
2017-07-24T10:11:38.347Z,935.7
2017-07-24T10:12:46.433Z,935.7
2017-07-24T10:13:54.577Z,935.7
2017-07-24T10:15:02.727Z,935.7
2017-07-24T10:16:10.725Z,935.7
2017-07-24T10:17:18.832Z,935.7
2017-07-24T10:18:26.868Z,935.6
2017-07-24T10:19:35.011Z,935.7
2017-07-24T10:20:43.216Z,935.7
2017-07-24T10:21:51.126Z,935.7
2017-07-24T10:22:59.215Z,935.7
2017-07-24T10:24:07.302Z,935.8
2017-07-24T10:25:15.443Z,935.8
2017-07-24T10:26:23.477Z,935.9
2017-07-24T10:27:31.721Z,935.9
2017-07-24T10:28:39.648Z,936.0
2017-07-24T10:29:47.736Z,936.1
2017-07-24T10:30:55.880Z,936.1
2017-07-24T10:32:03.908Z,936.1
2017-07-24T10:33:12.071Z,936.2
2017-07-24T10:34:20.179Z,936.2
2017-07-24T10:35:28.170Z,936.2
2017-07-24T10:36:36.311Z,936.2
2017-07-24T10:37:44.421Z,936.2
2017-07-24T10:38:52.433Z,936.2
2017-07-24T10:40:00.764Z,936.2
2017-07-24T10:41:08.605Z,936.2
2017-07-24T10:42:16.751Z,936.2
2017-07-24T10:43:24.782Z,936.2
2017-07-24T10:44:33.053Z,936.2
2017-07-24T10:45:40.956Z,936.2
2017-07-24T10:46:49.160Z,936.1
2017-07-24T10:47:57.185Z,936.1
2017-07-24T10:49:05.215Z,936.1
2017-07-24T10:50:13.380Z,936.1
2017-07-24T10:51:21.387Z,936.1
2017-07-24T10:52:29.474Z,936.1
2017-07-24T10:53:37.616Z,936.1
2017-07-24T10:54:45.827Z,936.1
2017-07-24T10:55:53.734Z,936.2
2017-07-24T10:57:01.821Z,936.2
2017-07-24T10:58:09.908Z,936.2
2017-07-24T10:59:18.051Z,936.3
2017-07-24T11:00:26.083Z,936.2
2017-07-24T11:01:34.340Z,936.3
2017-07-24T11:02:42.312Z,936.2
2017-07-24T11:03:50.345Z,936.2
2017-07-24T11:04:58.487Z,936.2
2017-07-24T11:06:06.521Z,936.2
2017-07-24T11:07:14.680Z,936.3
2017-07-24T11:08:22.756Z,936.3
2017-07-24T11:09:30.778Z,936.2
2017-07-24T11:10:38.988Z,936.3
2017-07-24T11:11:47.110Z,936.3
2017-07-24T11:12:55.041Z,936.3
2017-07-24T11:14:03.127Z,936.3
2017-07-24T11:15:11.216Z,936.3
2017-07-24T11:16:19.358Z,936.3
2017-07-24T11:17:27.391Z,936.3
2017-07-24T11:18:35.651Z,936.2
2017-07-24T11:19:43.564Z,936.2
2017-07-24T11:20:51.649Z,936.3
2017-07-24T11:21:59.793Z,936.2
2017-07-24T11:23:07.827Z,936.2
2017-07-24T11:24:15.997Z,936.2
2017-07-24T11:25:24.113Z,936.2
2017-07-24T11:26:32.087Z,936.3
2017-07-24T11:27:40.231Z,936.3
2017-07-24T11:28:48.262Z,936.3
2017-07-24T11:29:56.348Z,936.3
2017-07-24T11:31:04.434Z,936.2
2017-07-24T11:32:12.521Z,936.3
2017-07-24T11:33:20.729Z,936.2
2017-07-24T11:34:29.201Z,936.2
2017-07-24T11:35:36.784Z,936.2
2017-07-24T11:36:44.870Z,936.2
2017-07-24T11:37:52.958Z,936.2
2017-07-24T11:39:01.103Z,936.2
2017-07-24T11:40:09.133Z,936.2
2017-07-24T11:41:17.355Z,936.2
2017-07-24T11:42:25.454Z,936.2
2017-07-24T11:43:33.396Z,936.2
2017-07-24T11:44:41.537Z,936.2
2017-07-24T11:45:49.582Z,936.3
2017-07-24T11:46:57.666Z,936.2
2017-07-24T11:48:05.805Z,936.4
2017-07-24T11:49:13.839Z,936.3
2017-07-24T11:50:21.983Z,936.3
2017-07-24T11:51:30.017Z,936.2
2017-07-24T11:52:38.103Z,936.2
2017-07-24T11:53:46.190Z,936.2
2017-07-24T11:54:54.286Z,936.2
2017-07-24T11:56:02.486Z,936.2
2017-07-24T11:57:10.452Z,936.3
2017-07-24T11:58:18.724Z,936.3
2017-07-24T11:59:26.817Z,936.3
2017-07-24T12:00:34.713Z,936.3
2017-07-24T12:01:42.926Z,936.3
2017-07-24T12:02:50.898Z,936.4
2017-07-24T12:03:58.984Z,936.3
2017-07-24T12:05:07.139Z,936.4
2017-07-24T12:06:15.221Z,936.4
2017-07-24T12:07:23.365Z,936.4
2017-07-24T12:08:31.333Z,936.4
2017-07-24T12:09:39.421Z,936.4
2017-07-24T12:10:47.506Z,936.4
2017-07-24T12:11:55.594Z,936.5
2017-07-24T12:13:03.803Z,936.4
2017-07-24T12:14:11.773Z,936.4
2017-07-24T12:15:20.013Z,936.5
2017-07-24T12:16:28.114Z,936.5
2017-07-24T12:17:36.032Z,936.5
2017-07-24T12:18:44.174Z,936.5
2017-07-24T12:19:52.208Z,936.5
2017-07-24T12:21:00.297Z,936.6
2017-07-24T12:22:08.503Z,936.6
2017-07-24T12:23:16.468Z,936.6
2017-07-24T12:24:24.615Z,936.7
2017-07-24T12:25:32.642Z,936.7
2017-07-24T12:26:40.729Z,936.7
2017-07-24T12:27:48.815Z,936.7
2017-07-24T12:28:56.906Z,936.8
2017-07-24T12:30:05.118Z,936.8
2017-07-24T12:31:13.085Z,936.8
2017-07-24T12:32:21.313Z,936.8
2017-07-24T12:33:29.402Z,936.8
2017-07-24T12:34:37.344Z,936.8
2017-07-24T12:35:45.488Z,936.8
2017-07-24T12:36:53.517Z,936.8
2017-07-24T12:38:01.726Z,936.8
2017-07-24T12:39:09.762Z,936.8
2017-07-24T12:40:17.781Z,936.9
2017-07-24T12:41:25.929Z,937.0
2017-07-24T12:42:33.957Z,937.0
2017-07-24T12:43:42.042Z,937.0
2017-07-24T12:44:50.127Z,937.0
2017-07-24T12:45:58.213Z,937.1
2017-07-24T12:47:06.423Z,937.1
2017-07-24T12:48:14.388Z,937.1
2017-07-24T12:49:22.538Z,937.1
2017-07-24T12:50:30.751Z,937.0
2017-07-24T12:51:38.652Z,937.0
2017-07-24T12:52:46.795Z,937.1
2017-07-24T12:53:54.954Z,937.1
2017-07-24T12:55:02.919Z,937.1
2017-07-24T12:56:11.054Z,937.1
2017-07-24T12:57:19.095Z,937.0
2017-07-24T12:58:27.241Z,937.1
2017-07-24T12:59:35.269Z,937.0
2017-07-24T13:00:43.358Z,937.1
2017-07-24T13:01:51.443Z,937.0
2017-07-24T13:02:59.530Z,937.0
2017-07-24T13:04:07.738Z,937.0
2017-07-24T13:05:15.707Z,937.0
2017-07-24T13:06:23.793Z,937.0
2017-07-24T13:07:31.896Z,937.0
2017-07-24T13:08:39.969Z,937.0
2017-07-24T13:09:48.177Z,937.0
2017-07-24T13:10:56.143Z,937.0
2017-07-24T13:12:04.229Z,937.0
2017-07-24T13:13:12.450Z,937.0
2017-07-24T13:14:20.404Z,937.0
2017-07-24T13:15:28.548Z,937.0
2017-07-24T13:16:36.579Z,936.9
2017-07-24T13:17:44.666Z,936.9
2017-07-24T13:18:52.774Z,936.9
2017-07-24T13:20:00.855Z,936.8
2017-07-24T13:21:08.987Z,936.8
2017-07-24T13:22:17.018Z,936.8
2017-07-24T13:23:25.303Z,936.9
2017-07-24T13:24:33.190Z,936.9
2017-07-24T13:25:41.332Z,936.8
2017-07-24T13:26:49.490Z,936.9
2017-07-24T13:27:57.462Z,937.0
2017-07-24T13:29:05.561Z,936.9
2017-07-24T13:30:13.740Z,936.9
2017-07-24T13:31:21.730Z,936.9
2017-07-24T13:32:29.866Z,936.9
2017-07-24T13:33:37.905Z,936.9
2017-07-24T13:34:45.986Z,936.9
2017-07-24T13:35:54.135Z,936.9
2017-07-24T13:37:02.242Z,936.9
2017-07-24T13:38:10.369Z,936.9
2017-07-24T13:39:18.336Z,936.9
2017-07-24T13:40:26.425Z,936.9
2017-07-24T13:41:34.571Z,936.9
2017-07-24T13:42:42.594Z,937.0
2017-07-24T13:43:50.804Z,936.9
2017-07-24T13:44:58.771Z,936.9
2017-07-24T13:46:06.860Z,936.9
2017-07-24T13:47:14.944Z,936.9
2017-07-24T13:48:23.030Z,936.9
2017-07-24T13:49:31.243Z,936.9
2017-07-24T13:50:39.208Z,936.9
2017-07-24T13:51:47.294Z,936.9
2017-07-24T13:52:55.435Z,937.0
2017-07-24T13:54:03.527Z,936.9
2017-07-24T13:55:11.682Z,936.9
2017-07-24T13:56:19.653Z,936.9
2017-07-24T13:57:27.795Z,937.0
2017-07-24T13:58:35.826Z,937.0
2017-07-24T13:59:43.936Z,937.0
2017-07-24T14:00:52.118Z,937.0
2017-07-24T14:02:00.086Z,937.0
2017-07-24T14:03:08.174Z,937.1
2017-07-24T14:04:16.261Z,937.1
2017-07-24T14:05:24.479Z,937.0
2017-07-24T14:06:32.492Z,937.1
2017-07-24T14:07:40.523Z,937.1
2017-07-24T14:08:48.612Z,937.1
2017-07-24T14:09:56.804Z,937.1
2017-07-24T14:11:04.902Z,937.1
2017-07-24T14:12:12.992Z,937.1
2017-07-24T14:13:21.021Z,937.1
2017-07-24T14:14:29.059Z,937.1
2017-07-24T14:15:37.147Z,937.1
2017-07-24T14:16:45.235Z,937.2
2017-07-24T14:17:53.376Z,937.2
2017-07-24T14:19:01.411Z,937.2
2017-07-24T14:20:09.498Z,937.3
2017-07-24T14:21:17.759Z,937.3
2017-07-24T14:22:25.671Z,937.3
2017-07-24T14:23:33.815Z,937.3
2017-07-24T14:24:41.846Z,937.3
2017-07-24T14:25:49.934Z,937.4
2017-07-24T14:26:58.094Z,937.4
2017-07-24T14:28:06.221Z,937.4
2017-07-24T14:29:14.314Z,937.4
2017-07-24T14:30:22.300Z,937.4
2017-07-24T14:31:30.369Z,937.4
2017-07-24T14:32:38.460Z,937.4
2017-07-24T14:33:46.551Z,937.4
2017-07-24T14:34:54.760Z,937.4
2017-07-24T14:36:02.724Z,937.4
2017-07-24T14:37:10.818Z,937.4